sensor_id;sensor_type;location;lat;lon;timestamp;noise_LAeq;noise_LA_min;noise_LA_max;noise_LA01;noise_LA95
43385;Laerm;28988;48.042;7.584;2023-09-08T00:01:20;84.26;-57.68;94.82;;
43385;Laerm;28988;48.042;7.584;2023-09-08T00:03:45;84.25;-35.14;94.89;;
43385;Laerm;28988;48.042;7.584;2023-09-08T00:06:10;84.25;-57.68;95.07;;
43385;Laerm;28988;48.042;7.584;2023-09-08T00:08:36;84.25;-57.68;95.08;;
43385;Laerm;28988;48.042;7.584;2023-09-08T00:11:01;84.25;-23.73;94.80;;
43385;Laerm;28988;48.042;7.584;2023-09-08T00:13:26;84.23;-57.68;94.01;;
43385;Laerm;28988;48.042;7.584;2023-09-08T00:15:52;84.26;-57.68;95.01;;
43385;Laerm;28988;48.042;7.584;2023-09-08T00:18:17;84.25;-57.68;95.09;;
43385;Laerm;28988;48.042;7.584;2023-09-08T00:20:42;84.25;-23.73;94.93;;
43385;Laerm;28988;48.042;7.584;2023-09-08T00:23:07;84.24;-23.73;94.81;;
43385;Laerm;28988;48.042;7.584;2023-09-08T00:25:32;84.27;-57.68;95.03;;
43385;Laerm;28988;48.042;7.584;2023-09-08T00:27:59;84.26;-35.73;95.03;;
43385;Laerm;28988;48.042;7.584;2023-09-08T00:30:24;84.25;-24.05;95.07;;
43385;Laerm;28988;48.042;7.584;2023-09-08T00:32:49;84.26;-23.73;94.95;;
43385;Laerm;28988;48.042;7.584;2023-09-08T00:35:15;84.28;-57.68;95.01;;
43385;Laerm;28988;48.042;7.584;2023-09-08T00:37:40;84.27;-23.73;95.00;;
43385;Laerm;28988;48.042;7.584;2023-09-08T00:40:05;84.26;-28.29;95.20;;
43385;Laerm;28988;48.042;7.584;2023-09-08T00:42:32;84.25;-23.73;95.13;;
43385;Laerm;28988;48.042;7.584;2023-09-08T00:44:57;84.27;-57.68;94.76;;
43385;Laerm;28988;48.042;7.584;2023-09-08T00:47:22;84.28;-57.68;95.35;;
43385;Laerm;28988;48.042;7.584;2023-09-08T00:49:48;84.25;-57.68;94.88;;
43385;Laerm;28988;48.042;7.584;2023-09-08T00:52:14;84.26;-57.68;94.45;;
43385;Laerm;28988;48.042;7.584;2023-09-08T00:54:39;84.25;-23.73;94.77;;
43385;Laerm;28988;48.042;7.584;2023-09-08T00:57:04;84.25;-57.68;95.70;;
43385;Laerm;28988;48.042;7.584;2023-09-08T00:59:32;84.25;-28.29;94.43;;
43385;Laerm;28988;48.042;7.584;2023-09-08T01:01:57;84.25;-34.16;94.66;;
43385;Laerm;28988;48.042;7.584;2023-09-08T01:04:22;84.25;-23.73;94.77;;
43385;Laerm;28988;48.042;7.584;2023-09-08T01:06:48;84.25;-57.68;94.77;;
43385;Laerm;28988;48.042;7.584;2023-09-08T01:09:13;84.25;-57.68;94.40;;
43385;Laerm;28988;48.042;7.584;2023-09-08T01:11:39;84.24;-57.68;94.56;;
43385;Laerm;28988;48.042;7.584;2023-09-08T01:14:04;84.25;-57.68;94.56;;
43385;Laerm;28988;48.042;7.584;2023-09-08T01:16:29;84.26;-20.54;94.43;;
43385;Laerm;28988;48.042;7.584;2023-09-08T01:18:55;84.27;-57.68;94.95;;
43385;Laerm;28988;48.042;7.584;2023-09-08T01:26:31;84.27;-29.33;94.69;;
43385;Laerm;28988;48.042;7.584;2023-09-08T01:28:59;84.26;-33.10;95.18;;
43385;Laerm;28988;48.042;7.584;2023-09-08T01:31:26;84.25;-33.10;94.78;;
43385;Laerm;28988;48.042;7.584;2023-09-08T01:33:51;84.27;-22.86;94.39;;
43385;Laerm;28988;48.042;7.584;2023-09-08T01:36:17;84.26;-28.29;94.82;;
43385;Laerm;28988;48.042;7.584;2023-09-08T01:38:42;84.25;-28.29;94.88;;
43385;Laerm;28988;48.042;7.584;2023-09-08T01:41:07;84.26;-57.68;95.21;;
43385;Laerm;28988;48.042;7.584;2023-09-08T01:43:32;84.26;-57.68;94.88;;
43385;Laerm;28988;48.042;7.584;2023-09-08T01:45:58;84.25;-57.68;95.23;;
43385;Laerm;28988;48.042;7.584;2023-09-08T01:48:23;84.26;-57.68;94.80;;
43385;Laerm;28988;48.042;7.584;2023-09-08T01:50:48;84.25;-23.73;94.31;;
43385;Laerm;28988;48.042;7.584;2023-09-08T01:53:13;84.26;-28.29;95.19;;
43385;Laerm;28988;48.042;7.584;2023-09-08T01:55:38;84.26;-28.29;94.70;;
43385;Laerm;28988;48.042;7.584;2023-09-08T01:58:03;84.25;-23.73;94.40;;
43385;Laerm;28988;48.042;7.584;2023-09-08T02:00:29;84.26;-23.73;94.55;;
43385;Laerm;28988;48.042;7.584;2023-09-08T02:02:54;84.26;-33.10;94.70;;
43385;Laerm;28988;48.042;7.584;2023-09-08T02:05:19;84.25;-23.73;95.15;;
43385;Laerm;28988;48.042;7.584;2023-09-08T02:07:45;84.25;-57.68;95.43;;
43385;Laerm;28988;48.042;7.584;2023-09-08T02:10:10;84.27;-23.73;94.90;;
43385;Laerm;28988;48.042;7.584;2023-09-08T02:12:35;84.25;-28.29;94.86;;
43385;Laerm;28988;48.042;7.584;2023-09-08T02:15:01;84.27;-57.68;94.77;;
43385;Laerm;28988;48.042;7.584;2023-09-08T02:17:26;84.27;-23.99;95.23;;
43385;Laerm;28988;48.042;7.584;2023-09-08T02:19:51;84.24;-57.68;95.48;;
43385;Laerm;28988;48.042;7.584;2023-09-08T02:22:16;84.25;-28.29;94.99;;
43385;Laerm;28988;48.042;7.584;2023-09-08T02:24:41;84.26;-23.73;94.54;;
43385;Laerm;28988;48.042;7.584;2023-09-08T02:27:07;84.26;-57.68;94.74;;
43385;Laerm;28988;48.042;7.584;2023-09-08T02:29:32;84.25;-20.54;95.02;;
43385;Laerm;28988;48.042;7.584;2023-09-08T02:31:57;84.28;-23.73;94.81;;
43385;Laerm;28988;48.042;7.584;2023-09-08T02:34:22;84.27;-57.68;95.02;;
43385;Laerm;28988;48.042;7.584;2023-09-08T02:36:47;84.27;-31.94;94.69;;
43385;Laerm;28988;48.042;7.584;2023-09-08T02:39:13;84.26;-26.87;94.75;;
43385;Laerm;28988;48.042;7.584;2023-09-08T02:41:38;84.25;-57.68;95.19;;
43385;Laerm;28988;48.042;7.584;2023-09-08T02:44:07;84.25;-23.73;94.76;;
43385;Laerm;28988;48.042;7.584;2023-09-08T02:46:32;84.27;-33.10;94.65;;
43385;Laerm;28988;48.042;7.584;2023-09-08T02:48:57;84.25;-41.54;94.80;;
43385;Laerm;28988;48.042;7.584;2023-09-08T02:51:22;84.28;-28.29;94.87;;
43385;Laerm;28988;48.042;7.584;2023-09-08T02:53:47;84.26;-23.73;94.91;;
43385;Laerm;28988;48.042;7.584;2023-09-08T02:56:13;84.25;-23.73;94.83;;
43385;Laerm;28988;48.042;7.584;2023-09-08T02:58:38;84.27;-26.87;95.05;;
43385;Laerm;28988;48.042;7.584;2023-09-08T03:01:12;84.28;-57.68;94.36;;
43385;Laerm;28988;48.042;7.584;2023-09-08T03:03:39;84.26;-28.29;95.29;;
43385;Laerm;28988;48.042;7.584;2023-09-08T03:06:04;84.26;-57.68;95.24;;
43385;Laerm;28988;48.042;7.584;2023-09-08T03:08:29;84.26;-28.29;94.82;;
43385;Laerm;28988;48.042;7.584;2023-09-08T03:10:55;84.27;-57.68;94.62;;
43385;Laerm;28988;48.042;7.584;2023-09-08T03:13:21;84.27;-23.73;95.05;;
43385;Laerm;28988;48.042;7.584;2023-09-08T03:15:46;84.25;-23.73;95.02;;
43385;Laerm;28988;48.042;7.584;2023-09-08T03:18:12;84.26;-23.73;94.79;;
43385;Laerm;28988;48.042;7.584;2023-09-08T03:20:37;84.28;-23.73;95.19;;
43385;Laerm;28988;48.042;7.584;2023-09-08T03:23:02;84.29;-28.29;95.06;;
43385;Laerm;28988;48.042;7.584;2023-09-08T03:25:27;84.29;-26.83;95.16;;
43385;Laerm;28988;48.042;7.584;2023-09-08T03:27:52;84.26;-23.73;95.15;;
43385;Laerm;28988;48.042;7.584;2023-09-08T03:30:18;84.26;-31.41;94.70;;
43385;Laerm;28988;48.042;7.584;2023-09-08T03:32:43;84.25;-23.73;94.81;;
43385;Laerm;28988;48.042;7.584;2023-09-08T03:35:08;84.28;-23.73;95.46;;
43385;Laerm;28988;48.042;7.584;2023-09-08T03:37:34;84.25;-23.73;93.86;;
43385;Laerm;28988;48.042;7.584;2023-09-08T03:40:00;84.26;-22.86;95.10;;
43385;Laerm;28988;48.042;7.584;2023-09-08T03:42:25;84.26;-57.68;94.97;;
43385;Laerm;28988;48.042;7.584;2023-09-08T03:44:50;84.27;-57.68;95.87;;
43385;Laerm;28988;48.042;7.584;2023-09-08T03:47:15;84.26;-23.73;95.05;;
43385;Laerm;28988;48.042;7.584;2023-09-08T03:49:41;84.27;-57.68;95.38;;
43385;Laerm;28988;48.042;7.584;2023-09-08T03:52:06;84.25;-28.29;95.12;;
43385;Laerm;28988;48.042;7.584;2023-09-08T03:54:31;84.27;-23.73;95.32;;
43385;Laerm;28988;48.042;7.584;2023-09-08T03:56:56;84.27;-57.68;95.16;;
43385;Laerm;28988;48.042;7.584;2023-09-08T03:59:21;84.27;-57.68;95.00;;
43385;Laerm;28988;48.042;7.584;2023-09-08T04:01:46;84.25;-28.29;95.13;;
43385;Laerm;28988;48.042;7.584;2023-09-08T04:04:12;84.26;-61.99;94.98;;
43385;Laerm;28988;48.042;7.584;2023-09-08T04:06:37;84.26;-23.73;96.07;;
43385;Laerm;28988;48.042;7.584;2023-09-08T04:09:02;84.28;-24.66;94.98;;
43385;Laerm;28988;48.042;7.584;2023-09-08T04:11:27;84.27;-57.68;95.29;;
43385;Laerm;28988;48.042;7.584;2023-09-08T04:13:52;84.26;-59.49;95.03;;
43385;Laerm;28988;48.042;7.584;2023-09-08T04:16:18;84.25;-57.68;95.26;;
43385;Laerm;28988;48.042;7.584;2023-09-08T04:18:43;84.27;-28.29;95.02;;
43385;Laerm;28988;48.042;7.584;2023-09-08T04:21:09;84.25;-28.29;94.90;;
43385;Laerm;28988;48.042;7.584;2023-09-08T04:23:34;84.28;-23.73;94.81;;
43385;Laerm;28988;48.042;7.584;2023-09-08T04:26:00;84.29;-57.68;95.48;;
43385;Laerm;28988;48.042;7.584;2023-09-08T04:28:25;84.28;-24.05;94.95;;
43385;Laerm;28988;48.042;7.584;2023-09-08T04:30:50;84.26;-57.68;95.21;;
43385;Laerm;28988;48.042;7.584;2023-09-08T04:33:15;84.28;-28.29;94.94;;
43385;Laerm;28988;48.042;7.584;2023-09-08T04:35:40;84.28;-23.73;94.87;;
43385;Laerm;28988;48.042;7.584;2023-09-08T04:38:06;84.27;-23.73;95.64;;
43385;Laerm;28988;48.042;7.584;2023-09-08T04:40:31;84.27;-57.68;95.48;;
43385;Laerm;28988;48.042;7.584;2023-09-08T04:42:56;84.27;-57.68;94.82;;
43385;Laerm;28988;48.042;7.584;2023-09-08T04:45:21;84.28;-20.71;95.25;;
43385;Laerm;28988;48.042;7.584;2023-09-08T04:47:47;84.28;-57.68;95.14;;
43385;Laerm;28988;48.042;7.584;2023-09-08T04:50:12;84.27;-57.68;95.15;;
43385;Laerm;28988;48.042;7.584;2023-09-08T04:52:37;84.29;-57.68;95.16;;
43385;Laerm;28988;48.042;7.584;2023-09-08T04:55:02;84.28;-26.72;95.37;;
43385;Laerm;28988;48.042;7.584;2023-09-08T04:57:28;84.26;-57.68;94.96;;
43385;Laerm;28988;48.042;7.584;2023-09-08T04:59:54;84.29;-23.73;95.05;;
43385;Laerm;28988;48.042;7.584;2023-09-08T05:02:19;84.29;-33.10;95.05;;
43385;Laerm;28988;48.042;7.584;2023-09-08T05:04:44;84.28;-20.54;95.11;;
43385;Laerm;28988;48.042;7.584;2023-09-08T05:07:09;84.28;-28.29;95.24;;
43385;Laerm;28988;48.042;7.584;2023-09-08T05:09:35;84.26;-34.15;95.38;;
43385;Laerm;28988;48.042;7.584;2023-09-08T05:12:00;84.27;-23.73;94.77;;
43385;Laerm;28988;48.042;7.584;2023-09-08T05:14:26;84.28;-23.73;95.07;;
43385;Laerm;28988;48.042;7.584;2023-09-08T05:16:51;84.28;-23.73;95.18;;
43385;Laerm;28988;48.042;7.584;2023-09-08T05:19:20;84.27;-23.73;95.13;;
43385;Laerm;28988;48.042;7.584;2023-09-08T05:21:45;84.29;-23.73;94.98;;
43385;Laerm;28988;48.042;7.584;2023-09-08T05:24:11;84.28;-24.05;94.34;;
43385;Laerm;28988;48.042;7.584;2023-09-08T05:26:37;84.26;-32.90;94.95;;
43385;Laerm;28988;48.042;7.584;2023-09-08T05:29:02;84.25;-33.66;95.44;;
43385;Laerm;28988;48.042;7.584;2023-09-08T05:31:27;84.27;-43.92;94.94;;
43385;Laerm;28988;48.042;7.584;2023-09-08T05:33:53;84.27;-28.29;95.16;;
43385;Laerm;28988;48.042;7.584;2023-09-08T05:36:18;84.27;-23.73;94.79;;
43385;Laerm;28988;48.042;7.584;2023-09-08T05:38:43;84.27;-43.56;94.76;;
43385;Laerm;28988;48.042;7.584;2023-09-08T05:41:08;84.25;-31.18;94.42;;
43385;Laerm;28988;48.042;7.584;2023-09-08T05:43:33;84.26;-23.73;94.89;;
43385;Laerm;28988;48.042;7.584;2023-09-08T05:45:59;84.25;-23.73;95.41;;
43385;Laerm;28988;48.042;7.584;2023-09-08T05:48:24;84.25;-33.10;94.56;;
43385;Laerm;28988;48.042;7.584;2023-09-08T05:50:49;84.25;-25.17;95.06;;
43385;Laerm;28988;48.042;7.584;2023-09-08T05:53:14;84.24;-57.68;94.56;;
43385;Laerm;28988;48.042;7.584;2023-09-08T05:55:39;84.25;-57.68;95.01;;
43385;Laerm;28988;48.042;7.584;2023-09-08T05:58:06;84.25;-24.69;94.91;;
43385;Laerm;28988;48.042;7.584;2023-09-08T06:00:32;84.24;-33.10;94.67;;
43385;Laerm;28988;48.042;7.584;2023-09-08T06:02:57;84.24;-57.68;94.41;;
43385;Laerm;28988;48.042;7.584;2023-09-08T06:05:22;84.24;-57.68;94.28;;
43385;Laerm;28988;48.042;7.584;2023-09-08T06:07:48;84.24;-28.29;94.74;;
43385;Laerm;28988;48.042;7.584;2023-09-08T06:10:14;84.23;-57.68;94.93;;
43385;Laerm;28988;48.042;7.584;2023-09-08T06:12:39;84.24;-34.39;94.98;;
43385;Laerm;28988;48.042;7.584;2023-09-08T06:15:04;84.22;-34.16;95.02;;
43385;Laerm;28988;48.042;7.584;2023-09-08T06:17:30;84.22;-57.68;94.44;;
43385;Laerm;28988;48.042;7.584;2023-09-08T06:19:55;84.21;-33.10;94.39;;
43385;Laerm;28988;48.042;7.584;2023-09-08T06:22:20;84.21;-57.68;93.96;;
43385;Laerm;28988;48.042;7.584;2023-09-08T06:24:45;84.22;-23.73;94.30;;
43385;Laerm;28988;48.042;7.584;2023-09-08T06:27:11;84.20;-27.54;94.28;;
43385;Laerm;28988;48.042;7.584;2023-09-08T06:29:36;84.21;-23.73;94.78;;
43385;Laerm;28988;48.042;7.584;2023-09-08T06:32:01;84.21;-28.29;94.54;;
43385;Laerm;28988;48.042;7.584;2023-09-08T06:34:27;84.22;-23.73;94.16;;
43385;Laerm;28988;48.042;7.584;2023-09-08T06:36:52;84.21;-57.68;94.30;;
43385;Laerm;28988;48.042;7.584;2023-09-08T06:39:17;84.20;-31.18;94.15;;
43385;Laerm;28988;48.042;7.584;2023-09-08T06:41:42;84.19;-57.68;94.08;;
43385;Laerm;28988;48.042;7.584;2023-09-08T06:44:08;84.18;-23.73;94.25;;
43385;Laerm;28988;48.042;7.584;2023-09-08T06:46:33;84.19;-57.68;94.16;;
43385;Laerm;28988;48.042;7.584;2023-09-08T06:48:58;84.20;-33.10;94.14;;
43385;Laerm;28988;48.042;7.584;2023-09-08T06:51:23;84.19;-57.68;93.65;;
43385;Laerm;28988;48.042;7.584;2023-09-08T06:53:55;84.18;-57.68;94.09;;
43385;Laerm;28988;48.042;7.584;2023-09-08T06:56:21;84.19;-38.65;93.89;;
43385;Laerm;28988;48.042;7.584;2023-09-08T06:58:46;84.18;-31.88;93.71;;
43385;Laerm;28988;48.042;7.584;2023-09-08T07:01:11;84.17;-57.68;94.18;;
43385;Laerm;28988;48.042;7.584;2023-09-08T07:03:37;84.18;-57.68;93.96;;
43385;Laerm;28988;48.042;7.584;2023-09-08T07:06:02;84.19;-57.68;94.87;;
43385;Laerm;28988;48.042;7.584;2023-09-08T07:08:27;84.17;-57.68;94.11;;
43385;Laerm;28988;48.042;7.584;2023-09-08T07:10:53;84.18;-23.67;93.70;;
43385;Laerm;28988;48.042;7.584;2023-09-08T07:13:19;84.18;-57.68;94.17;;
43385;Laerm;28988;48.042;7.584;2023-09-08T07:15:44;84.17;-33.10;93.53;;
43385;Laerm;28988;48.042;7.584;2023-09-08T07:18:09;84.17;-57.68;93.76;;
43385;Laerm;28988;48.042;7.584;2023-09-08T07:20:34;84.17;-33.10;94.00;;
43385;Laerm;28988;48.042;7.584;2023-09-08T07:23:00;84.18;-33.10;94.28;;
43385;Laerm;28988;48.042;7.584;2023-09-08T07:25:25;84.17;-23.73;94.23;;
43385;Laerm;28988;48.042;7.584;2023-09-08T07:27:50;84.17;-57.68;94.10;;
43385;Laerm;28988;48.042;7.584;2023-09-08T07:30:17;84.18;-28.29;93.82;;
43385;Laerm;28988;48.042;7.584;2023-09-08T07:32:42;84.17;-33.10;94.16;;
43385;Laerm;28988;48.042;7.584;2023-09-08T07:35:09;84.17;-57.68;94.42;;
43385;Laerm;28988;48.042;7.584;2023-09-08T07:37:39;84.17;-33.10;93.78;;
43385;Laerm;28988;48.042;7.584;2023-09-08T07:40:04;84.17;-23.73;94.13;;
43385;Laerm;28988;48.042;7.584;2023-09-08T07:42:30;84.17;-33.10;93.96;;
43385;Laerm;28988;48.042;7.584;2023-09-08T07:44:55;84.16;-40.41;93.31;;
43385;Laerm;28988;48.042;7.584;2023-09-08T07:47:20;84.18;-33.10;93.82;;
43385;Laerm;28988;48.042;7.584;2023-09-08T07:49:46;84.16;-28.29;93.64;;
43385;Laerm;28988;48.042;7.584;2023-09-08T07:52:12;84.18;-57.68;94.12;;
43385;Laerm;28988;48.042;7.584;2023-09-08T07:54:37;84.16;-57.68;93.36;;
43385;Laerm;28988;48.042;7.584;2023-09-08T07:57:03;84.16;-33.10;94.16;;
43385;Laerm;28988;48.042;7.584;2023-09-08T07:59:28;84.17;-28.29;93.75;;
43385;Laerm;28988;48.042;7.584;2023-09-08T08:01:53;84.16;-57.68;93.48;;
43385;Laerm;28988;48.042;7.584;2023-09-08T08:04:18;84.16;-25.57;93.49;;
43385;Laerm;28988;48.042;7.584;2023-09-08T08:06:44;84.17;-57.68;93.57;;
43385;Laerm;28988;48.042;7.584;2023-09-08T08:09:09;84.17;-57.68;93.69;;
43385;Laerm;28988;48.042;7.584;2023-09-08T08:11:35;84.16;-57.68;93.83;;
43385;Laerm;28988;48.042;7.584;2023-09-08T08:14:00;84.16;-35.53;93.85;;
43385;Laerm;28988;48.042;7.584;2023-09-08T08:16:26;84.16;-28.29;94.35;;
43385;Laerm;28988;48.042;7.584;2023-09-08T08:18:51;84.16;-28.29;93.70;;
43385;Laerm;28988;48.042;7.584;2023-09-08T08:21:17;84.16;-40.46;93.53;;
43385;Laerm;28988;48.042;7.584;2023-09-08T08:23:42;84.16;-33.10;93.67;;
43385;Laerm;28988;48.042;7.584;2023-09-08T08:26:07;84.16;-23.73;93.68;;
43385;Laerm;28988;48.042;7.584;2023-09-08T08:28:32;84.16;-33.10;93.70;;
43385;Laerm;28988;48.042;7.584;2023-09-08T08:30:58;84.16;-28.29;93.18;;
43385;Laerm;28988;48.042;7.584;2023-09-08T08:33:23;84.14;-33.10;93.40;;
43385;Laerm;28988;48.042;7.584;2023-09-08T08:35:50;84.14;-57.68;93.03;;
43385;Laerm;28988;48.042;7.584;2023-09-08T08:38:16;84.16;-28.29;93.34;;
43385;Laerm;28988;48.042;7.584;2023-09-08T08:40:42;84.14;-28.29;93.18;;
43385;Laerm;28988;48.042;7.584;2023-09-08T08:43:07;84.14;-57.68;94.22;;
43385;Laerm;28988;48.042;7.584;2023-09-08T08:45:32;84.15;-33.10;93.49;;
43385;Laerm;28988;48.042;7.584;2023-09-08T08:47:58;84.15;-23.58;93.53;;
43385;Laerm;28988;48.042;7.584;2023-09-08T08:50:24;84.14;-33.10;93.87;;
43385;Laerm;28988;48.042;7.584;2023-09-08T08:52:49;84.14;-34.16;93.40;;
43385;Laerm;28988;48.042;7.584;2023-09-08T08:55:14;84.14;-22.68;93.05;;
43385;Laerm;28988;48.042;7.584;2023-09-08T08:57:40;84.17;-32.90;93.59;;
43385;Laerm;28988;48.042;7.584;2023-09-08T09:00:10;84.41;-47.13;93.86;;
43385;Laerm;28988;48.042;7.584;2023-09-08T09:02:39;87.24;-41.62;95.95;;
43385;Laerm;28988;48.042;7.584;2023-09-08T09:05:06;93.85;-19.72;99.49;;
43385;Laerm;28988;48.042;7.584;2023-09-08T09:07:32;90.76;-53.15;99.28;;
43385;Laerm;28988;48.042;7.584;2023-09-08T09:09:57;83.07;-73.72;95.58;;
43385;Laerm;28988;48.042;7.584;2023-09-08T09:12:23;80.45;-33.26;93.66;;
43385;Laerm;28988;48.042;7.584;2023-09-08T09:14:51;79.61;-40.84;91.46;;
43385;Laerm;28988;48.042;7.584;2023-09-08T09:17:17;79.01;-49.18;89.35;;
43385;Laerm;28988;48.042;7.584;2023-09-08T09:19:42;78.77;-47.88;89.78;;
43385;Laerm;28988;48.042;7.584;2023-09-08T09:22:08;78.47;-47.89;88.56;;
43385;Laerm;28988;48.042;7.584;2023-09-08T09:24:37;78.33;-50.99;89.50;;
43385;Laerm;28988;48.042;7.584;2023-09-08T09:27:06;78.29;-50.99;89.46;;
43385;Laerm;28988;48.042;7.584;2023-09-08T09:29:31;78.27;-61.79;88.71;;
43385;Laerm;28988;48.042;7.584;2023-09-08T09:32:01;78.24;-47.75;89.72;;
43385;Laerm;28988;48.042;7.584;2023-09-08T09:34:27;78.22;-45.05;88.96;;
43385;Laerm;28988;48.042;7.584;2023-09-08T09:36:52;78.23;-50.99;88.43;;
43385;Laerm;28988;48.042;7.584;2023-09-08T09:39:18;78.21;-36.76;89.01;;
43385;Laerm;28988;48.042;7.584;2023-09-08T09:41:44;78.22;-50.99;88.44;;
43385;Laerm;28988;48.042;7.584;2023-09-08T09:44:10;78.21;-36.76;88.09;;
43385;Laerm;28988;48.042;7.584;2023-09-08T09:46:35;78.23;-54.27;88.73;;
43385;Laerm;28988;48.042;7.584;2023-09-08T09:49:01;78.22;-37.27;87.98;;
43385;Laerm;28988;48.042;7.584;2023-09-08T09:51:26;78.27;-50.99;89.79;;
43385;Laerm;28988;48.042;7.584;2023-09-08T09:53:51;78.35;-52.22;88.65;;
43385;Laerm;28988;48.042;7.584;2023-09-08T09:56:17;78.55;-37.36;88.07;;
43385;Laerm;28988;48.042;7.584;2023-09-08T09:58:42;78.88;-53.52;88.61;;
43385;Laerm;28988;48.042;7.584;2023-09-08T10:01:08;80.40;-44.81;88.92;;
43385;Laerm;28988;48.042;7.584;2023-09-08T10:03:36;83.31;-38.43;90.14;;
43385;Laerm;28988;48.042;7.584;2023-09-08T10:06:02;84.92;-26.50;90.89;;
43385;Laerm;28988;48.042;7.584;2023-09-08T10:08:27;85.46;-40.22;91.28;;
43385;Laerm;28988;48.042;7.584;2023-09-08T10:10:53;84.48;-37.02;90.53;;
43385;Laerm;28988;48.042;7.584;2023-09-08T10:13:23;84.69;-51.30;91.02;;
43385;Laerm;28988;48.042;7.584;2023-09-08T10:15:52;83.42;-39.21;89.49;;
43385;Laerm;28988;48.042;7.584;2023-09-08T10:18:17;83.70;-50.62;89.83;;
43385;Laerm;28988;48.042;7.584;2023-09-08T10:20:44;82.89;-49.01;89.59;;
43385;Laerm;28988;48.042;7.584;2023-09-08T10:23:16;82.01;-28.89;89.27;;
43385;Laerm;28988;48.042;7.584;2023-09-08T10:25:46;80.60;-33.05;88.97;;
43385;Laerm;28988;48.042;7.584;2023-09-08T10:28:18;80.54;-37.33;88.78;;
43385;Laerm;28988;48.042;7.584;2023-09-08T10:30:43;80.87;-42.02;88.78;;
43385;Laerm;28988;48.042;7.584;2023-09-08T10:33:09;82.87;-42.98;90.47;;
43385;Laerm;28988;48.042;7.584;2023-09-08T10:35:35;87.13;-23.61;92.69;;
43385;Laerm;28988;48.042;7.584;2023-09-08T10:40:44;89.18;-38.10;93.34;;
43385;Laerm;28988;48.042;7.584;2023-09-08T10:43:09;88.90;-36.37;93.58;;
43385;Laerm;28988;48.042;7.584;2023-09-08T10:45:36;87.78;-38.76;93.47;;
43385;Laerm;28988;48.042;7.584;2023-09-08T10:48:01;86.37;-35.26;93.91;;
43385;Laerm;28988;48.042;7.584;2023-09-08T10:50:31;84.99;-34.01;93.11;;
43385;Laerm;28988;48.042;7.584;2023-09-08T10:53:16;85.01;-43.11;92.21;;
43385;Laerm;28988;48.042;7.584;2023-09-08T10:55:46;84.95;-36.85;91.44;;
43385;Laerm;28988;48.042;7.584;2023-09-08T10:58:35;84.35;-38.03;91.43;;
43385;Laerm;28988;48.042;7.584;2023-09-08T11:01:04;83.17;-40.67;92.86;;
43385;Laerm;28988;48.042;7.584;2023-09-08T11:06:07;81.60;-57.48;90.60;;
43385;Laerm;28988;48.042;7.584;2023-09-08T11:08:33;79.39;-41.76;90.58;;
43385;Laerm;28988;48.042;7.584;2023-09-08T11:10:58;77.33;-50.85;88.93;;
43385;Laerm;28988;48.042;7.584;2023-09-08T11:13:25;75.85;-67.82;88.77;;
43385;Laerm;28988;48.042;7.584;2023-09-08T11:15:53;74.74;-62.41;87.59;;
43385;Laerm;28988;48.042;7.584;2023-09-08T11:18:39;73.14;-83.65;86.60;;
43385;Laerm;28988;48.042;7.584;2023-09-08T11:21:07;72.08;-54.07;87.01;;
43385;Laerm;28988;48.042;7.584;2023-09-08T11:23:32;74.79;-53.06;88.28;;
43385;Laerm;28988;48.042;7.584;2023-09-08T11:25:58;77.64;-61.10;89.47;;
43385;Laerm;28988;48.042;7.584;2023-09-08T11:28:24;78.41;-51.22;89.00;;
43385;Laerm;28988;48.042;7.584;2023-09-08T11:30:54;76.63;-45.45;89.06;;
43385;Laerm;28988;48.042;7.584;2023-09-08T11:33:22;75.03;-47.02;87.61;;
43385;Laerm;28988;48.042;7.584;2023-09-08T11:35:53;73.94;-57.99;86.94;;
43385;Laerm;28988;48.042;7.584;2023-09-08T11:38:25;72.72;-47.49;86.60;;
43385;Laerm;28988;48.042;7.584;2023-09-08T11:40:52;72.27;-85.95;85.80;;
43385;Laerm;28988;48.042;7.584;2023-09-08T11:43:18;73.23;-48.66;87.40;;
43385;Laerm;28988;48.042;7.584;2023-09-08T11:45:43;72.68;-51.44;87.45;;
43385;Laerm;28988;48.042;7.584;2023-09-08T11:48:09;70.35;-60.93;85.52;;
43385;Laerm;28988;48.042;7.584;2023-09-08T11:50:34;69.01;-63.23;86.64;;
43385;Laerm;28988;48.042;7.584;2023-09-08T11:53:00;67.32;-61.94;85.74;;
43385;Laerm;28988;48.042;7.584;2023-09-08T11:55:27;67.55;-65.84;85.41;;
43385;Laerm;28988;48.042;7.584;2023-09-08T11:57:52;67.66;-58.21;85.64;;
43385;Laerm;28988;48.042;7.584;2023-09-08T12:00:22;67.29;-70.87;84.51;;
43385;Laerm;28988;48.042;7.584;2023-09-08T12:02:48;67.28;-73.28;85.39;;
43385;Laerm;28988;48.042;7.584;2023-09-08T12:05:21;67.79;-53.31;85.56;;
43385;Laerm;28988;48.042;7.584;2023-09-08T12:07:48;67.26;-72.49;85.62;;
43385;Laerm;28988;48.042;7.584;2023-09-08T12:10:13;65.97;-52.55;85.10;;
43385;Laerm;28988;48.042;7.584;2023-09-08T12:12:43;65.05;-61.83;86.41;;
43385;Laerm;28988;48.042;7.584;2023-09-08T12:15:08;65.33;-67.40;84.08;;
43385;Laerm;28988;48.042;7.584;2023-09-08T12:17:45;65.19;-62.52;85.40;;
43385;Laerm;28988;48.042;7.584;2023-09-08T12:20:14;64.99;-54.19;85.53;;
43385;Laerm;28988;48.042;7.584;2023-09-08T12:22:46;65.70;-66.86;84.35;;
43385;Laerm;28988;48.042;7.584;2023-09-08T12:25:12;66.02;-86.55;86.94;;
43385;Laerm;28988;48.042;7.584;2023-09-08T12:27:37;67.84;-77.39;85.36;;
43385;Laerm;28988;48.042;7.584;2023-09-08T12:30:02;68.72;-54.78;86.09;;
43385;Laerm;28988;48.042;7.584;2023-09-08T12:32:29;67.99;-58.59;85.87;;
43385;Laerm;28988;48.042;7.584;2023-09-08T12:34:55;67.60;-49.75;86.11;;
43385;Laerm;28988;48.042;7.584;2023-09-08T12:37:21;67.29;-81.83;84.71;;
43385;Laerm;28988;48.042;7.584;2023-09-08T12:39:46;68.55;-54.96;86.31;;
43385;Laerm;28988;48.042;7.584;2023-09-08T12:42:12;69.43;-46.66;86.26;;
43385;Laerm;28988;48.042;7.584;2023-09-08T12:44:37;68.84;-55.60;85.86;;
43385;Laerm;28988;48.042;7.584;2023-09-08T12:47:02;67.49;-84.25;85.26;;
43385;Laerm;28988;48.042;7.584;2023-09-08T12:49:28;66.23;-71.11;84.57;;
43385;Laerm;28988;48.042;7.584;2023-09-08T12:51:53;66.12;-61.46;86.37;;
43385;Laerm;28988;48.042;7.584;2023-09-08T12:54:18;66.68;-63.75;85.51;;
43385;Laerm;28988;48.042;7.584;2023-09-08T12:56:43;66.01;-62.66;85.07;;
43385;Laerm;28988;48.042;7.584;2023-09-08T12:59:08;65.03;-54.07;85.21;;
43385;Laerm;28988;48.042;7.584;2023-09-08T13:01:34;63.67;-86.80;82.89;;
43385;Laerm;28988;48.042;7.584;2023-09-08T13:03:59;63.70;-56.30;83.78;;
43385;Laerm;28988;48.042;7.584;2023-09-08T13:06:24;64.07;-65.08;85.38;;
43385;Laerm;28988;48.042;7.584;2023-09-08T13:08:49;64.56;-60.19;84.63;;
43385;Laerm;28988;48.042;7.584;2023-09-08T13:11:14;65.77;-51.82;84.67;;
43385;Laerm;28988;48.042;7.584;2023-09-08T13:13:39;66.40;-62.32;84.60;;
43385;Laerm;28988;48.042;7.584;2023-09-08T13:16:04;66.17;-65.43;86.15;;
43385;Laerm;28988;48.042;7.584;2023-09-08T13:18:30;66.23;-60.53;84.81;;
43385;Laerm;28988;48.042;7.584;2023-09-08T13:21:00;67.13;-55.52;86.75;;
43385;Laerm;28988;48.042;7.584;2023-09-08T13:23:25;69.04;-53.94;87.28;;
43385;Laerm;28988;48.042;7.584;2023-09-08T13:25:50;70.21;-44.43;85.98;;
43385;Laerm;28988;48.042;7.584;2023-09-08T13:28:16;69.88;-66.74;87.25;;
43385;Laerm;28988;48.042;7.584;2023-09-08T13:30:41;68.88;-57.51;84.33;;
43385;Laerm;28988;48.042;7.584;2023-09-08T13:33:06;68.34;-70.93;88.02;;
43385;Laerm;28988;48.042;7.584;2023-09-08T13:35:32;68.99;-54.51;86.84;;